sensor_id;sensor_type;location;lat;lon;timestamp;pressure;altitude;pressure_sealevel;temperature;humidity
13476;BME280;6810;63.824;20.288;2022-11-13T00:00:36;102361.06;;;7.56;69.02
13476;BME280;6810;63.824;20.288;2022-11-13T00:03:42;102365.56;;;7.52;69.31
13476;BME280;6810;63.824;20.288;2022-11-13T00:06:47;102363.81;;;7.51;69.37
13476;BME280;6810;63.824;20.288;2022-11-13T00:09:53;102339.44;;;7.31;69.03
13476;BME280;6810;63.824;20.288;2022-11-13T00:12:58;102375.44;;;7.46;69.29
13476;BME280;6810;63.824;20.288;2022-11-13T00:16:06;102313.41;;;7.05;69.27
13476;BME280;6810;63.824;20.288;2022-11-13T00:19:14;102391.44;;;7.41;69.32
13476;BME280;6810;63.824;20.288;2022-11-13T00:22:20;102397.66;;;7.39;69.48
13476;BME280;6810;63.824;20.288;2022-11-13T00:25:26;102403.94;;;7.35;69.49
13476;BME280;6810;63.824;20.288;2022-11-13T00:28:31;102352.44;;;6.97;69.77
13476;BME280;6810;63.824;20.288;2022-11-13T00:31:37;102416.41;;;7.28;69.75
13476;BME280;6810;63.824;20.288;2022-11-13T00:34:42;102430.63;;;7.26;69.70
13476;BME280;6810;63.824;20.288;2022-11-13T00:37:48;102435.09;;;7.22;69.58
13476;BME280;6810;63.824;20.288;2022-11-13T00:40:53;102443.09;;;7.19;70.00
13476;BME280;6810;63.824;20.288;2022-11-13T00:43:59;102438.75;;;7.15;69.90
13476;BME280;6810;63.824;20.288;2022-11-13T00:47:05;102440.56;;;7.12;69.80
13476;BME280;6810;63.824;20.288;2022-11-13T00:50:10;102448.59;;;7.08;69.63
13476;BME280;6810;63.824;20.288;2022-11-13T00:53:16;102445.13;;;7.03;69.73
13476;BME280;6810;63.824;20.288;2022-11-13T00:56:21;102408.56;;;6.69;69.59
13476;BME280;6810;63.824;20.288;2022-11-13T00:59:26;102453.25;;;6.93;69.79
13476;BME280;6810;63.824;20.288;2022-11-13T01:02:32;102460.38;;;6.88;69.54
13476;BME280;6810;63.824;20.288;2022-11-13T01:05:40;102446.47;;;6.75;70.01
13476;BME280;6810;63.824;20.288;2022-11-13T01:08:46;102474.69;;;6.76;69.51
13476;BME280;6810;63.824;20.288;2022-11-13T01:11:52;102479.19;;;6.71;69.91
13476;BME280;6810;63.824;20.288;2022-11-13T01:14:58;102421.47;;;6.32;69.69
13476;BME280;6810;63.824;20.288;2022-11-13T01:18:03;102483.72;;;6.62;70.12
13476;BME280;6810;63.824;20.288;2022-11-13T01:21:16;102484.69;;;6.56;69.67
13476;BME280;6810;63.824;20.288;2022-11-13T01:24:21;102490.09;;;6.50;70.30
13476;BME280;6810;63.824;20.288;2022-11-13T01:27:27;102478.84;;;6.32;70.08
13476;BME280;6810;63.824;20.288;2022-11-13T01:30:32;102510.50;;;6.41;69.98
13476;BME280;6810;63.824;20.288;2022-11-13T01:33:38;102507.97;;;6.33;69.69
13476;BME280;6810;63.824;20.288;2022-11-13T01:36:43;102528.28;;;6.30;69.84
13476;BME280;6810;63.824;20.288;2022-11-13T01:39:49;102503.78;;;6.14;69.88
13476;BME280;6810;63.824;20.288;2022-11-13T01:42:54;102518.72;;;6.20;69.70
13476;BME280;6810;63.824;20.288;2022-11-13T01:49:38;102517.97;;;6.09;70.60
13476;BME280;6810;63.824;20.288;2022-11-13T01:52:44;102452.38;;;5.55;70.09
13476;BME280;6810;63.824;20.288;2022-11-13T01:55:50;102528.66;;;6.00;70.25
13476;BME280;6810;63.824;20.288;2022-11-13T01:59:20;102541.03;;;5.96;70.46
13476;BME280;6810;63.824;20.288;2022-11-13T02:02:24;102545.50;;;5.93;70.01
13476;BME280;6810;63.824;20.288;2022-11-13T02:05:30;102544.63;;;5.89;71.03
13476;BME280;6810;63.824;20.288;2022-11-13T02:08:35;102542.94;;;5.85;70.77
13476;BME280;6810;63.824;20.288;2022-11-13T02:11:40;102545.59;;;5.82;70.71
13476;BME280;6810;63.824;20.288;2022-11-13T02:14:49;102540.31;;;5.78;70.79
13476;BME280;6810;63.824;20.288;2022-11-13T02:17:58;102534.19;;;5.73;71.19
13476;BME280;6810;63.824;20.288;2022-11-13T02:21:29;102530.69;;;5.68;71.29
13476;BME280;6810;63.824;20.288;2022-11-13T02:24:40;102543.06;;;5.66;70.85
13476;BME280;6810;63.824;20.288;2022-11-13T02:27:48;102536.03;;;5.63;70.69
13476;BME280;6810;63.824;20.288;2022-11-13T02:30:54;102538.72;;;5.57;71.10
13476;BME280;6810;63.824;20.288;2022-11-13T02:34:02;102540.47;;;5.58;70.46
13476;BME280;6810;63.824;20.288;2022-11-13T02:37:08;102541.38;;;5.56;71.23
13476;BME280;6810;63.824;20.288;2022-11-13T02:40:13;102537.03;;;5.50;70.90
13476;BME280;6810;63.824;20.288;2022-11-13T02:43:18;102541.41;;;5.53;71.74
13476;BME280;6810;63.824;20.288;2022-11-13T02:46:24;102537.91;;;5.51;71.68
13476;BME280;6810;63.824;20.288;2022-11-13T02:49:29;102529.13;;;5.44;71.06
13476;BME280;6810;63.824;20.288;2022-11-13T02:52:35;102538.81;;;5.50;71.35
13476;BME280;6810;63.824;20.288;2022-11-13T02:55:41;102537.91;;;5.49;71.94
13476;BME280;6810;63.824;20.288;2022-11-13T02:58:46;102532.69;;;5.43;71.11
13476;BME280;6810;63.824;20.288;2022-11-13T03:01:51;102541.47;;;5.47;71.09
13476;BME280;6810;63.824;20.288;2022-11-13T03:04:57;102547.66;;;5.46;71.12
13476;BME280;6810;63.824;20.288;2022-11-13T03:08:03;102549.44;;;5.44;71.24
13476;BME280;6810;63.824;20.288;2022-11-13T03:11:10;102544.16;;;5.42;71.23
13476;BME280;6810;63.824;20.288;2022-11-13T03:14:16;102545.91;;;5.40;72.36
13476;BME280;6810;63.824;20.288;2022-11-13T03:17:21;102553.88;;;5.38;71.71
13476;BME280;6810;63.824;20.288;2022-11-13T03:20:27;102559.19;;;5.35;71.51
13476;BME280;6810;63.824;20.288;2022-11-13T03:23:32;102553.00;;;5.35;71.85
13476;BME280;6810;63.824;20.288;2022-11-13T03:26:37;102553.03;;;5.32;72.14
13476;BME280;6810;63.824;20.288;2022-11-13T03:29:43;102570.69;;;5.30;71.62
13476;BME280;6810;63.824;20.288;2022-11-13T03:32:52;102569.81;;;5.28;71.56
13476;BME280;6810;63.824;20.288;2022-11-13T03:35:57;102572.50;;;5.23;72.01
13476;BME280;6810;63.824;20.288;2022-11-13T03:39:03;102568.94;;;5.24;72.23
13476;BME280;6810;63.824;20.288;2022-11-13T03:42:09;102516.38;;;4.82;72.17
13476;BME280;6810;63.824;20.288;2022-11-13T03:45:15;102591.00;;;5.22;71.70
13476;BME280;6810;63.824;20.288;2022-11-13T03:48:20;102583.06;;;5.22;72.68
13476;BME280;6810;63.824;20.288;2022-11-13T03:51:26;102585.72;;;5.20;72.07
13476;BME280;6810;63.824;20.288;2022-11-13T03:54:31;102584.84;;;5.20;72.85
13476;BME280;6810;63.824;20.288;2022-11-13T03:57:36;102589.28;;;5.19;72.25
13476;BME280;6810;63.824;20.288;2022-11-13T04:00:43;102594.56;;;5.18;72.97
13476;BME280;6810;63.824;20.288;2022-11-13T04:03:49;102587.56;;;5.09;72.71
13476;BME280;6810;63.824;20.288;2022-11-13T04:06:55;102580.59;;;4.98;72.08
13476;BME280;6810;63.824;20.288;2022-11-13T04:10:01;102608.66;;;5.14;72.29
13476;BME280;6810;63.824;20.288;2022-11-13T04:13:07;102611.34;;;5.11;72.51
13476;BME280;6810;63.824;20.288;2022-11-13T04:16:12;102609.59;;;5.10;72.25
13476;BME280;6810;63.824;20.288;2022-11-13T04:19:17;102616.63;;;5.06;73.33
13476;BME280;6810;63.824;20.288;2022-11-13T04:22:23;102621.94;;;5.05;72.44
13476;BME280;6810;63.824;20.288;2022-11-13T04:25:29;102621.06;;;5.00;72.94
13476;BME280;6810;63.824;20.288;2022-11-13T04:28:34;102629.88;;;5.00;72.24
13476;BME280;6810;63.824;20.288;2022-11-13T04:31:39;102636.94;;;4.98;72.94
13476;BME280;6810;63.824;20.288;2022-11-13T04:34:45;102552.66;;;4.46;72.20
13476;BME280;6810;63.824;20.288;2022-11-13T04:37:50;102612.38;;;4.75;72.97
13476;BME280;6810;63.824;20.288;2022-11-13T04:40:56;102641.38;;;4.93;72.26
13476;BME280;6810;63.824;20.288;2022-11-13T04:44:00;102626.44;;;4.82;72.85
13476;BME280;6810;63.824;20.288;2022-11-13T04:47:05;102649.34;;;4.89;72.59
13476;BME280;6810;63.824;20.288;2022-11-13T04:50:11;102647.56;;;4.88;72.96
13476;BME280;6810;63.824;20.288;2022-11-13T04:53:16;102652.84;;;4.88;72.41
13476;BME280;6810;63.824;20.288;2022-11-13T04:56:22;102647.56;;;4.86;72.52
13476;BME280;6810;63.824;20.288;2022-11-13T04:59:27;102651.09;;;4.84;73.82
13476;BME280;6810;63.824;20.288;2022-11-13T05:02:33;102655.50;;;4.85;73.73
13476;BME280;6810;63.824;20.288;2022-11-13T05:05:39;102662.56;;;4.84;73.84
13476;BME280;6810;63.824;20.288;2022-11-13T05:08:45;102653.75;;;4.84;73.21
13476;BME280;6810;63.824;20.288;2022-11-13T05:11:50;102659.91;;;4.86;73.05
13476;BME280;6810;63.824;20.288;2022-11-13T05:14:55;102644.97;;;4.77;73.93
13476;BME280;6810;63.824;20.288;2022-11-13T05:18:01;102669.59;;;4.87;74.17
13476;BME280;6810;63.824;20.288;2022-11-13T05:21:08;102666.94;;;4.87;73.95
13476;BME280;6810;63.824;20.288;2022-11-13T05:24:13;102670.47;;;4.87;73.13
13476;BME280;6810;63.824;20.288;2022-11-13T05:27:18;102676.63;;;4.88;73.94
13476;BME280;6810;63.824;20.288;2022-11-13T05:30:25;102684.53;;;4.88;73.10
13476;BME280;6810;63.824;20.288;2022-11-13T05:33:30;102682.78;;;4.87;73.15
13476;BME280;6810;63.824;20.288;2022-11-13T05:36:36;102688.97;;;4.87;73.90
13476;BME280;6810;63.824;20.288;2022-11-13T05:39:42;102701.28;;;4.87;73.26
13476;BME280;6810;63.824;20.288;2022-11-13T05:42:47;102685.47;;;4.78;74.45
13476;BME280;6810;63.824;20.288;2022-11-13T05:45:59;102704.81;;;4.86;73.23
13476;BME280;6810;63.824;20.288;2022-11-13T05:49:04;102699.53;;;4.86;73.20
13476;BME280;6810;63.824;20.288;2022-11-13T05:52:10;102702.19;;;4.86;74.35
13476;BME280;6810;63.824;20.288;2022-11-13T05:55:15;102703.94;;;4.87;73.68
13476;BME280;6810;63.824;20.288;2022-11-13T05:58:21;102709.22;;;4.87;73.74
13476;BME280;6810;63.824;20.288;2022-11-13T06:04:34;102710.97;;;4.88;74.49
13476;BME280;6810;63.824;20.288;2022-11-13T06:07:41;102729.44;;;4.89;74.29
13476;BME280;6810;63.824;20.288;2022-11-13T06:10:46;102717.13;;;4.88;73.84
13476;BME280;6810;63.824;20.288;2022-11-13T06:13:52;102718.88;;;4.88;73.95
13476;BME280;6810;63.824;20.288;2022-11-13T06:16:59;102679.34;;;4.67;74.60
13476;BME280;6810;63.824;20.288;2022-11-13T06:20:04;102724.16;;;4.89;73.80
13476;BME280;6810;63.824;20.288;2022-11-13T06:23:10;102720.69;;;4.86;74.69
13476;BME280;6810;63.824;20.288;2022-11-13T06:26:18;102733.88;;;4.87;74.14
13476;BME280;6810;63.824;20.288;2022-11-13T06:29:24;102734.75;;;4.85;73.86
13476;BME280;6810;63.824;20.288;2022-11-13T06:32:30;102746.19;;;4.88;74.83
13476;BME280;6810;63.824;20.288;2022-11-13T06:35:35;102743.56;;;4.88;74.46
13476;BME280;6810;63.824;20.288;2022-11-13T06:38:41;102753.22;;;4.88;74.91
13476;BME280;6810;63.824;20.288;2022-11-13T06:41:47;102749.75;;;4.86;74.42
13476;BME280;6810;63.824;20.288;2022-11-13T06:44:53;102759.41;;;4.84;73.59
13476;BME280;6810;63.824;20.288;2022-11-13T06:47:58;102759.41;;;4.84;74.24
13476;BME280;6810;63.824;20.288;2022-11-13T06:51:06;102741.81;;;4.74;74.05
13476;BME280;6810;63.824;20.288;2022-11-13T06:54:11;102763.81;;;4.80;74.15
13476;BME280;6810;63.824;20.288;2022-11-13T06:57:16;102770.00;;;4.79;74.19
13476;BME280;6810;63.824;20.288;2022-11-13T07:00:22;102763.84;;;4.73;74.79
13476;BME280;6810;63.824;20.288;2022-11-13T07:03:27;102773.50;;;4.75;74.00
13476;BME280;6810;63.824;20.288;2022-11-13T07:06:33;102773.50;;;4.71;74.13
13476;BME280;6810;63.824;20.288;2022-11-13T07:09:38;102789.34;;;4.74;73.67
13476;BME280;6810;63.824;20.288;2022-11-13T07:12:43;102786.72;;;4.72;74.31
13476;BME280;6810;63.824;20.288;2022-11-13T07:15:49;102777.97;;;4.63;74.74
13476;BME280;6810;63.824;20.288;2022-11-13T07:19:01;102799.06;;;4.72;74.81
13476;BME280;6810;63.824;20.288;2022-11-13T07:22:07;102803.47;;;4.70;75.14
13476;BME280;6810;63.824;20.288;2022-11-13T07:25:12;102799.94;;;4.69;74.80
13476;BME280;6810;63.824;20.288;2022-11-13T07:28:18;102800.81;;;4.64;74.27
13476;BME280;6810;63.824;20.288;2022-11-13T07:31:23;102802.56;;;4.66;74.17
13476;BME280;6810;63.824;20.288;2022-11-13T07:34:28;102813.13;;;4.69;74.01
13476;BME280;6810;63.824;20.288;2022-11-13T07:37:34;102808.75;;;4.70;74.20
13476;BME280;6810;63.824;20.288;2022-11-13T07:40:40;102809.63;;;4.69;75.10
13476;BME280;6810;63.824;20.288;2022-11-13T07:43:46;102821.94;;;4.70;74.86
13476;BME280;6810;63.824;20.288;2022-11-13T07:46:54;102826.34;;;4.69;74.80
13476;BME280;6810;63.824;20.288;2022-11-13T07:49:59;102823.69;;;4.68;75.44
13476;BME280;6810;63.824;20.288;2022-11-13T07:53:06;102826.34;;;4.68;75.35
13476;BME280;6810;63.824;20.288;2022-11-13T07:56:12;102836.91;;;4.68;74.51
13476;BME280;6810;63.824;20.288;2022-11-13T07:59:17;102838.69;;;4.67;75.76
13476;BME280;6810;63.824;20.288;2022-11-13T08:02:23;102843.09;;;4.67;75.71
13476;BME280;6810;63.824;20.288;2022-11-13T08:05:29;102851.00;;;4.67;74.92
13476;BME280;6810;63.824;20.288;2022-11-13T08:08:35;102836.06;;;4.66;74.42
13476;BME280;6810;63.824;20.288;2022-11-13T08:11:40;102836.91;;;4.60;74.57
13476;BME280;6810;63.824;20.288;2022-11-13T08:14:46;102831.63;;;4.48;75.00
13476;BME280;6810;63.824;20.288;2022-11-13T08:18:00;102844.84;;;4.63;75.44
13476;BME280;6810;63.824;20.288;2022-11-13T08:21:05;102839.56;;;4.62;75.55
13476;BME280;6810;63.824;20.288;2022-11-13T08:24:11;102843.97;;;4.63;75.03
13476;BME280;6810;63.824;20.288;2022-11-13T08:27:17;102845.72;;;4.62;74.75
13476;BME280;6810;63.824;20.288;2022-11-13T08:30:23;102857.19;;;4.63;74.85
13476;BME280;6810;63.824;20.288;2022-11-13T08:33:29;102811.41;;;4.37;75.77
13476;BME280;6810;63.824;20.288;2022-11-13T08:36:35;102850.13;;;4.63;75.63
13476;BME280;6810;63.824;20.288;2022-11-13T08:39:41;102847.47;;;4.65;74.67
13476;BME280;6810;63.824;20.288;2022-11-13T08:42:46;102852.75;;;4.66;74.98
13476;BME280;6810;63.824;20.288;2022-11-13T08:45:51;102858.03;;;4.66;75.35
13476;BME280;6810;63.824;20.288;2022-11-13T08:48:57;102857.19;;;4.64;75.27
13476;BME280;6810;63.824;20.288;2022-11-13T08:52:02;102858.03;;;4.69;75.45
13476;BME280;6810;63.824;20.288;2022-11-13T08:55:08;102867.75;;;4.72;75.82
13476;BME280;6810;63.824;20.288;2022-11-13T08:58:14;102868.59;;;4.75;75.20
13476;BME280;6810;63.824;20.288;2022-11-13T09:01:19;102873.88;;;4.77;75.39
13476;BME280;6810;63.824;20.288;2022-11-13T09:04:25;102850.13;;;4.65;76.10
13476;BME280;6810;63.824;20.288;2022-11-13T09:07:30;102878.31;;;4.84;75.02
13476;BME280;6810;63.824;20.288;2022-11-13T09:10:36;102874.78;;;4.86;76.07
13476;BME280;6810;63.824;20.288;2022-11-13T09:13:41;102884.47;;;4.89;75.40
13476;BME280;6810;63.824;20.288;2022-11-13T09:16:47;102878.31;;;4.93;75.26
13476;BME280;6810;63.824;20.288;2022-11-13T09:19:52;102873.91;;;4.96;75.95
13476;BME280;6810;63.824;20.288;2022-11-13T09:23:02;102872.13;;;4.97;75.62
13476;BME280;6810;63.824;20.288;2022-11-13T09:26:08;102870.38;;;4.99;76.08
13476;BME280;6810;63.824;20.288;2022-11-13T09:29:13;102873.00;;;5.06;76.35
13476;BME280;6810;63.824;20.288;2022-11-13T09:32:19;102871.25;;;5.11;76.62
13476;BME280;6810;63.824;20.288;2022-11-13T09:35:25;102865.06;;;5.14;75.46
13476;BME280;6810;63.824;20.288;2022-11-13T09:38:40;102876.50;;;5.19;75.97
13476;BME280;6810;63.824;20.288;2022-11-13T09:41:50;102866.81;;;5.21;76.31
13476;BME280;6810;63.824;20.288;2022-11-13T09:45:03;102871.22;;;5.25;76.43
13476;BME280;6810;63.824;20.288;2022-11-13T09:48:27;102822.78;;;5.05;76.71
13476;BME280;6810;63.824;20.288;2022-11-13T09:51:36;102874.72;;;5.34;75.64
13476;BME280;6810;63.824;20.288;2022-11-13T09:54:47;102847.41;;;5.25;76.16
13476;BME280;6810;63.824;20.288;2022-11-13T10:01:16;102870.28;;;5.44;76.54
13476;BME280;6810;63.824;20.288;2022-11-13T10:04:36;102872.94;;;5.49;76.58
13476;BME280;6810;63.824;20.288;2022-11-13T10:07:56;102885.25;;;5.54;76.61
13476;BME280;6810;63.824;20.288;2022-11-13T10:11:18;102883.47;;;5.59;76.03
13476;BME280;6810;63.824;20.288;2022-11-13T10:14:51;102874.63;;;5.63;76.50
13476;BME280;6810;63.824;20.288;2022-11-13T10:17:59;102875.50;;;5.67;76.60
13476;BME280;6810;63.824;20.288;2022-11-13T10:21:16;102891.38;;;5.71;76.11
13476;BME280;6810;63.824;20.288;2022-11-13T10:24:27;102891.34;;;5.77;76.19
13476;BME280;6810;63.824;20.288;2022-11-13T10:27:33;102886.94;;;5.78;76.39
13476;BME280;6810;63.824;20.288;2022-11-13T10:30:39;102887.78;;;5.86;76.77
13476;BME280;6810;63.824;20.288;2022-11-13T10:33:45;102867.53;;;5.77;76.14
13476;BME280;6810;63.824;20.288;2022-11-13T10:37:16;102882.44;;;5.96;76.87
13476;BME280;6810;63.824;20.288;2022-11-13T10:40:26;102888.63;;;6.01;75.97
13476;BME280;6810;63.824;20.288;2022-11-13T10:43:32;102886.84;;;6.03;76.69
13476;BME280;6810;63.824;20.288;2022-11-13T11:29:28;102938.69;;;6.49;75.91
13476;BME280;6810;63.824;20.288;2022-11-13T11:32:41;102868.22;;;6.20;76.34
13476;BME280;6810;63.824;20.288;2022-11-13T11:36:03;102944.78;;;6.60;75.85
13476;BME280;6810;63.824;20.288;2022-11-13T11:42:33;102955.34;;;6.65;76.21
13476;BME280;6810;63.824;20.288;2022-11-13T11:45:42;102954.44;;;6.69;76.17
13476;BME280;6810;63.824;20.288;2022-11-13T11:48:49;102957.06;;;6.73;76.19
13476;BME280;6810;63.824;20.288;2022-11-13T11:52:11;102958.78;;;6.77;76.08
13476;BME280;6810;63.824;20.288;2022-11-13T12:02:35;102953.47;;;6.79;76.03
13476;BME280;6810;63.824;20.288;2022-11-13T12:15:32;102978.16;;;6.87;75.82
13476;BME280;6810;63.824;20.288;2022-11-13T12:22:11;102979.06;;;6.87;76.05
13476;BME280;6810;63.824;20.288;2022-11-13T12:28:32;102971.94;;;6.91;75.84
13476;BME280;6810;63.824;20.288;2022-11-13T12:37:23;102968.44;;;6.92;75.71
13476;BME280;6810;63.824;20.288;2022-11-13T12:46:38;102971.97;;;6.89;75.72
13476;BME280;6810;63.824;20.288;2022-11-13T12:49:28;102968.44;;;6.89;75.55
13476;BME280;6810;63.824;20.288;2022-11-13T12:52:33;102971.13;;;6.87;75.85
13476;BME280;6810;63.824;20.288;2022-11-13T12:55:39;102975.53;;;6.87;75.88
13476;BME280;6810;63.824;20.288;2022-11-13T12:58:29;102983.47;;;6.87;75.97
13476;BME280;6810;63.824;20.288;2022-11-13T13:01:18;102986.13;;;6.88;75.89
13476;BME280;6810;63.824;20.288;2022-11-13T13:04:22;102965.88;;;6.78;75.57
13476;BME280;6810;63.824;20.288;2022-11-13T13:10:31;102979.06;;;6.89;75.59
13476;BME280;6810;63.824;20.288;2022-11-13T13:16:10;102975.53;;;6.87;75.70
13476;BME280;6810;63.824;20.288;2022-11-13T13:19:07;102897.25;;;6.36;75.60
13476;BME280;6810;63.824;20.288;2022-11-13T13:22:30;102982.63;;;6.82;75.55
13476;BME280;6810;63.824;20.288;2022-11-13T13:25:26;102981.75;;;6.81;75.52
13476;BME280;6810;63.824;20.288;2022-11-13T13:28:17;102978.22;;;6.79;75.40
13476;BME280;6810;63.824;20.288;2022-11-13T13:34:42;102972.97;;;6.75;75.97
13476;BME280;6810;63.824;20.288;2022-11-13T13:37:44;102979.16;;;6.71;75.71
13476;BME280;6810;63.824;20.288;2022-11-13T13:40:37;102975.66;;;6.67;74.98
13476;BME280;6810;63.824;20.288;2022-11-13T13:46:35;102975.72;;;6.60;75.31
13476;BME280;6810;63.824;20.288;2022-11-13T13:49:22;102981.88;;;6.57;75.92
13476;BME280;6810;63.824;20.288;2022-11-13T13:52:13;102927.34;;;6.23;75.19
13476;BME280;6810;63.824;20.288;2022-11-13T13:55:02;102930.00;;;6.23;75.83
13476;BME280;6810;63.824;20.288;2022-11-13T13:57:48;102984.59;;;6.45;75.63
13476;BME280;6810;63.824;20.288;2022-11-13T14:00:34;102971.38;;;6.42;75.95
13476;BME280;6810;63.824;20.288;2022-11-13T14:03:37;102980.22;;;6.40;75.60
13476;BME280;6810;63.824;20.288;2022-11-13T14:06:23;102969.66;;;6.35;75.59
13476;BME280;6810;63.824;20.288;2022-11-13T14:09:10;102976.72;;;6.32;75.79
13476;BME280;6810;63.824;20.288;2022-11-13T14:12:05;102974.09;;;6.27;75.54
13476;BME280;6810;63.824;20.288;2022-11-13T14:15:31;102979.44;;;6.21;75.28
13476;BME280;6810;63.824;20.288;2022-11-13T14:18:18;102990.03;;;6.18;75.28
13476;BME280;6810;63.824;20.288;2022-11-13T14:21:11;102955.69;;;5.97;75.13
13476;BME280;6810;63.824;20.288;2022-11-13T14:24:00;102943.38;;;5.86;75.28
13476;BME280;6810;63.824;20.288;2022-11-13T14:26:50;102977.72;;;6.01;74.92
13476;BME280;6810;63.824;20.288;2022-11-13T14:29:47;102940.75;;;5.72;75.44
13476;BME280;6810;63.824;20.288;2022-11-13T14:32:38;102997.16;;;5.97;74.83
13476;BME280;6810;63.824;20.288;2022-11-13T14:35:31;103003.34;;;5.94;74.95
13476;BME280;6810;63.824;20.288;2022-11-13T14:38:19;103003.38;;;5.90;75.70
13476;BME280;6810;63.824;20.288;2022-11-13T14:41:06;103002.50;;;5.85;75.43
13476;BME280;6810;63.824;20.288;2022-11-13T14:43:59;102996.28;;;5.81;75.74
13476;BME280;6810;63.824;20.288;2022-11-13T14:46:45;102989.25;;;5.74;74.92
13476;BME280;6810;63.824;20.288;2022-11-13T14:49:35;102971.63;;;5.66;74.80
13476;BME280;6810;63.824;20.288;2022-11-13T14:52:26;102988.38;;;5.68;75.33
13476;BME280;6810;63.824;20.288;2022-11-13T14:55:30;102994.56;;;5.64;74.90
13476;BME280;6810;63.824;20.288;2022-11-13T14:58:34;102985.75;;;5.57;75.27
13476;BME280;6810;63.824;20.288;2022-11-13T15:01:23;102986.66;;;5.55;74.47
13476;BME280;6810;63.824;20.288;2022-11-13T15:04:08;102985.75;;;5.50;75.53
13476;BME280;6810;63.824;20.288;2022-11-13T15:06:58;102978.69;;;5.39;74.98
13476;BME280;6810;63.824;20.288;2022-11-13T15:09:44;102990.16;;;5.40;74.78
13476;BME280;6810;63.824;20.288;2022-11-13T15:12:30;102985.78;;;5.34;75.75
13476;BME280;6810;63.824;20.288;2022-11-13T15:15:21;102991.94;;;5.30;74.12
13476;BME280;6810;63.824;20.288;2022-11-13T15:18:13;102995.47;;;5.25;74.83
13476;BME280;6810;63.824;20.288;2022-11-13T15:21:01;102986.66;;;5.21;75.34
13476;BME280;6810;63.824;20.288;2022-11-13T15:23:46;102993.72;;;5.16;74.56
13476;BME280;6810;63.824;20.288;2022-11-13T15:26:32;102982.25;;;5.13;75.27
13476;BME280;6810;63.824;20.288;2022-11-13T15:29:17;102983.13;;;5.07;75.45
13476;BME280;6810;63.824;20.288;2022-11-13T15:32:02;102992.81;;;4.96;74.21
13476;BME280;6810;63.824;20.288;2022-11-13T15:34:48;102991.91;;;4.85;74.00
13476;BME280;6810;63.824;20.288;2022-11-13T15:37:34;102991.03;;;4.79;74.89
13476;BME280;6810;63.824;20.288;2022-11-13T15:40:19;103005.13;;;4.75;74.82
13476;BME280;6810;63.824;20.288;2022-11-13T15:43:07;102988.38;;;4.73;75.51
13476;BME280;6810;63.824;20.288;2022-11-13T15:45:56;102990.13;;;4.69;75.64
13476;BME280;6810;63.824;20.288;2022-11-13T15:48:41;102984.81;;;4.66;74.63
13476;BME280;6810;63.824;20.288;2022-11-13T15:51:42;102978.69;;;4.63;74.80
13476;BME280;6810;63.824;20.288;2022-11-13T15:54:48;102985.69;;;4.59;74.61
13476;BME280;6810;63.824;20.288;2022-11-13T15:57:54;102977.78;;;4.56;75.65
13476;BME280;6810;63.824;20.288;2022-11-13T16:00:59;102959.25;;;4.43;75.82
13476;BME280;6810;63.824;20.288;2022-11-13T16:04:05;102979.50;;;4.48;74.27
13476;BME280;6810;63.824;20.288;2022-11-13T16:07:30;102968.03;;;4.39;75.21
13476;BME280;6810;63.824;20.288;2022-11-13T16:10:36;102959.22;;;4.29;74.34
13476;BME280;6810;63.824;20.288;2022-11-13T16:13:41;102963.63;;;4.32;75.44
13476;BME280;6810;63.824;20.288;2022-11-13T16:16:47;102970.63;;;4.31;75.32
13476;BME280;6810;63.824;20.288;2022-11-13T16:19:51;102967.97;;;4.24;75.31
13476;BME280;6810;63.824;20.288;2022-11-13T16:22:58;102965.31;;;4.18;75.43
13476;BME280;6810;63.824;20.288;2022-11-13T16:26:03;102959.13;;;4.13;75.27
13476;BME280;6810;63.824;20.288;2022-11-13T16:29:17;102974.09;;;4.14;75.61
13476;BME280;6810;63.824;20.288;2022-11-13T16:32:22;102967.91;;;4.09;75.11
13476;BME280;6810;63.824;20.288;2022-11-13T16:35:28;102972.28;;;4.04;74.81
13476;BME280;6810;63.824;20.288;2022-11-13T16:38:33;102948.47;;;3.86;74.86
13476;BME280;6810;63.824;20.288;2022-11-13T16:41:39;102974.88;;;3.96;75.26
13476;BME280;6810;63.824;20.288;2022-11-13T16:44:44;102982.78;;;3.93;74.51
13476;BME280;6810;63.824;20.288;2022-11-13T16:47:49;102983.66;;;3.88;74.99
13476;BME280;6810;63.824;20.288;2022-11-13T16:50:55;102977.47;;;3.84;74.68
13476;BME280;6810;63.824;20.288;2022-11-13T16:54:00;102963.34;;;3.73;74.30
13476;BME280;6810;63.824;20.288;2022-11-13T16:57:11;102966.88;;;3.77;74.31
13476;BME280;6810;63.824;20.288;2022-11-13T17:00:17;102963.34;;;3.73;75.41
13476;BME280;6810;63.824;20.288;2022-11-13T17:03:23;102958.00;;;3.64;75.29
13476;BME280;6810;63.824;20.288;2022-11-13T17:06:31;102962.44;;;3.65;75.83
13476;BME280;6810;63.824;20.288;2022-11-13T17:09:43;102972.06;;;3.62;74.70
13476;BME280;6810;63.824;20.288;2022-11-13T17:13:09;102945.56;;;3.40;75.78
13476;BME280;6810;63.824;20.288;2022-11-13T17:16:15;102972.91;;;3.53;75.09
13476;BME280;6810;63.824;20.288;2022-11-13T17:19:21;102972.84;;;3.48;75.65
13476;BME280;6810;63.824;20.288;2022-11-13T17:22:26;102959.59;;;3.39;75.42
13476;BME280;6810;63.824;20.288;2022-11-13T17:25:32;102972.81;;;3.42;74.60
13476;BME280;6810;63.824;20.288;2022-11-13T17:28:38;102965.75;;;3.37;76.02
13476;BME280;6810;63.824;20.288;2022-11-13T17:31:43;102969.28;;;3.37;74.67
13476;BME280;6810;63.824;20.288;2022-11-13T17:34:49;102969.25;;;3.34;75.00
13476;BME280;6810;63.824;20.288;2022-11-13T17:37:54;102971.00;;;3.32;74.73
13476;BME280;6810;63.824;20.288;2022-11-13T17:41:07;102963.94;;;3.28;75.21
13476;BME280;6810;63.824;20.288;2022-11-13T17:44:13;102971.84;;;3.27;75.29
13476;BME280;6810;63.824;20.288;2022-11-13T17:47:18;102960.38;;;3.25;75.44
13476;BME280;6810;63.824;20.288;2022-11-13T17:50:24;102965.63;;;3.22;74.74
13476;BME280;6810;63.824;20.288;2022-11-13T17:53:29;102961.25;;;3.21;75.06
13476;BME280;6810;63.824;20.288;2022-11-13T17:56:35;102950.63;;;3.13;75.91
13476;BME280;6810;63.824;20.288;2022-11-13T17:59:41;102963.81;;;3.15;75.73